createdAt,value
2019-02-04T00:00:30.623Z,15.40
2019-02-04T00:02:59.365Z,15.43
2019-02-04T00:05:28.227Z,15.40
2019-02-04T00:07:56.667Z,15.90
2019-02-04T00:10:25.099Z,15.25
2019-02-04T00:12:53.494Z,14.78
2019-02-04T00:15:21.908Z,13.58
2019-02-04T00:17:50.307Z,13.58
2019-02-04T00:20:18.708Z,13.95
2019-02-04T00:22:47.117Z,15.00
2019-02-04T00:25:15.597Z,15.93
2019-02-04T00:27:44.189Z,12.90
2019-02-04T00:30:18.477Z,13.25
2019-02-04T00:32:46.958Z,14.53
2019-02-04T00:35:16.331Z,14.68
2019-02-04T00:37:44.871Z,14.70
2019-02-04T00:40:21.996Z,14.40
2019-02-04T00:42:50.814Z,15.00
2019-02-04T00:45:19.328Z,12.85
2019-02-04T00:47:47.918Z,14.65
2019-02-04T00:50:19.007Z,15.10
2019-02-04T00:52:47.433Z,15.53
2019-02-04T00:55:15.989Z,14.40
2019-02-04T00:57:44.711Z,14.60
2019-02-04T01:00:16.371Z,15.08
2019-02-04T01:02:44.930Z,14.30
2019-02-04T01:05:16.349Z,14.95
2019-02-04T01:07:45.341Z,14.50
2019-02-04T01:10:28.142Z,13.00
2019-02-04T01:12:57.689Z,14.38
2019-02-04T01:15:26.478Z,12.70
2019-02-04T01:17:54.970Z,13.80
2019-02-04T01:20:30.476Z,14.10
2019-02-04T01:22:59.363Z,13.28
2019-02-04T01:25:29.012Z,13.30
2019-02-04T01:27:57.595Z,13.90
2019-02-04T01:30:26.372Z,13.68
2019-02-04T01:32:54.887Z,14.98
2019-02-04T01:35:23.419Z,14.13
2019-02-04T01:37:52.095Z,14.65
2019-02-04T01:40:22.666Z,14.58
2019-02-04T01:42:51.620Z,13.08
2019-02-04T01:45:20.332Z,14.13
2019-02-04T01:47:49.009Z,14.47
2019-02-04T01:50:19.670Z,13.70
2019-02-04T01:52:48.654Z,13.93
2019-02-04T01:55:17.225Z,14.15
2019-02-04T01:57:48.186Z,15.08
2019-02-04T02:00:19.581Z,13.53
2019-02-04T02:02:48.267Z,13.48
2019-02-04T02:05:17.405Z,13.43
2019-02-04T02:07:45.951Z,14.13
2019-02-04T02:10:17.497Z,11.45
2019-02-04T02:12:46.225Z,12.70
2019-02-04T02:15:14.817Z,14.90
2019-02-04T02:17:43.470Z,16.73
2019-02-04T02:20:15.025Z,16.07
2019-02-04T02:22:43.509Z,15.88
2019-02-04T02:25:12.024Z,15.38
2019-02-04T02:27:40.573Z,15.18
2019-02-04T02:30:15.051Z,15.40
2019-02-04T02:32:43.492Z,15.32
2019-02-04T02:35:12.052Z,14.63
2019-02-04T02:37:40.565Z,14.20
2019-02-04T02:40:20.928Z,14.60
2019-02-04T02:42:49.663Z,16.73
2019-02-04T02:45:18.490Z,13.50
2019-02-04T02:47:46.963Z,14.53
2019-02-04T02:50:15.858Z,13.20
2019-02-04T02:52:44.303Z,13.18
2019-02-04T02:55:16.274Z,12.80
2019-02-04T02:57:44.860Z,12.50
2019-02-04T03:00:16.224Z,12.33
2019-02-04T03:02:44.632Z,12.45
2019-02-04T03:05:15.367Z,12.95
2019-02-04T03:07:43.942Z,10.78
2019-02-04T03:10:15.395Z,12.20
2019-02-04T03:12:43.894Z,13.05
2019-02-04T03:15:13.054Z,13.00
2019-02-04T03:17:51.530Z,11.05
2019-02-04T03:20:12.903Z,12.85
2019-02-04T03:22:41.456Z,12.10
2019-02-04T03:25:12.734Z,11.78
2019-02-04T03:27:41.495Z,13.32
2019-02-04T03:30:21.675Z,15.13
2019-02-04T03:32:50.272Z,14.28
2019-02-04T03:35:18.766Z,12.65
2019-02-04T03:37:47.296Z,13.98
2019-02-04T03:40:19.605Z,11.83
2019-02-04T03:42:48.199Z,12.15
2019-02-04T03:45:17.017Z,12.88
2019-02-04T03:47:45.651Z,12.65
2019-02-04T03:50:14.538Z,13.08
2019-02-04T03:52:43.237Z,12.03
2019-02-04T03:55:15.520Z,14.07
2019-02-04T03:57:44.087Z,10.82
2019-02-04T04:00:15.909Z,12.47
2019-02-04T04:02:44.393Z,13.35
2019-02-04T04:05:12.963Z,14.35
2019-02-04T04:07:41.753Z,12.05
2019-02-04T04:10:10.999Z,13.50
2019-02-04T04:12:39.465Z,12.65
2019-02-04T04:15:10.690Z,13.68
2019-02-04T04:17:39.118Z,13.13
2019-02-04T04:20:13.498Z,16.37
2019-02-04T04:22:42.066Z,15.65
2019-02-04T04:25:13.216Z,16.45
2019-02-04T04:27:41.619Z,14.80
2019-02-04T04:30:22.083Z,13.10
2019-02-04T04:32:50.542Z,13.45
2019-02-04T04:35:19.220Z,14.35
2019-02-04T04:37:47.914Z,14.78
2019-02-04T04:40:17.194Z,13.30
2019-02-04T04:42:46.144Z,14.28
2019-02-04T04:45:23.320Z,13.62
2019-02-04T04:47:52.219Z,13.38
2019-02-04T04:50:20.624Z,13.65
2019-02-04T04:52:49.473Z,15.05
2019-02-04T04:55:23.588Z,16.75
2019-02-04T04:57:52.090Z,16.00
2019-02-04T05:00:29.156Z,14.73
2019-02-04T05:02:57.844Z,13.28
2019-02-04T05:05:26.378Z,15.70
2019-02-04T05:07:54.915Z,13.62
2019-02-04T05:10:23.600Z,15.90
2019-02-04T05:12:52.170Z,15.28
2019-02-04T05:15:23.309Z,13.20
2019-02-04T05:17:52.690Z,14.23
2019-02-04T05:20:21.557Z,14.35
2019-02-04T05:22:50.041Z,14.87
2019-02-04T05:25:18.583Z,15.98
2019-02-04T05:27:47.095Z,14.05
2019-02-04T05:30:20.197Z,13.85
2019-02-04T05:32:48.814Z,13.50
2019-02-04T05:35:17.281Z,13.45
2019-02-04T05:37:46.320Z,14.78
2019-02-04T05:40:16.724Z,12.98
2019-02-04T05:42:46.872Z,13.90
2019-02-04T05:45:20.080Z,12.35
2019-02-04T05:47:48.564Z,14.15
2019-02-04T05:50:18.739Z,11.30
2019-02-04T05:52:47.881Z,11.63
2019-02-04T05:55:18.241Z,12.20
2019-02-04T05:57:46.787Z,12.80
2019-02-04T06:00:25.670Z,15.15
2019-02-04T06:02:54.184Z,14.00
2019-02-04T06:05:22.838Z,13.62
2019-02-04T06:07:51.291Z,13.93
2019-02-04T06:10:19.944Z,14.18
2019-02-04T06:12:48.616Z,12.88
2019-02-04T06:15:17.825Z,15.15
2019-02-04T06:17:46.278Z,15.53
2019-02-04T06:20:20.628Z,15.13
2019-02-04T06:22:49.130Z,14.07
2019-02-04T06:25:17.673Z,16.90
2019-02-04T06:27:46.225Z,14.68
2019-02-04T06:30:16.209Z,15.85
2019-02-04T06:32:44.670Z,15.25
2019-02-04T06:35:14.890Z,15.70
2019-02-04T06:37:46.538Z,13.95
2019-02-04T06:40:16.925Z,15.63
2019-02-04T06:42:45.450Z,14.70
2019-02-04T06:45:16.086Z,13.75
2019-02-04T06:47:44.877Z,14.63
2019-02-04T06:50:15.460Z,15.60
2019-02-04T06:52:44.134Z,14.05
2019-02-04T06:55:18.074Z,16.57
2019-02-04T06:57:46.515Z,15.25
2019-02-04T07:00:17.316Z,14.58
2019-02-04T07:02:46.492Z,15.23
2019-02-04T07:05:16.388Z,16.05
2019-02-04T07:07:45.407Z,17.05
2019-02-04T07:10:19.849Z,16.85
2019-02-04T07:12:48.274Z,14.93
2019-02-04T07:15:16.782Z,14.78
2019-02-04T07:17:45.189Z,17.92
2019-02-04T07:20:16.892Z,15.85
2019-02-04T07:22:45.615Z,15.45
2019-02-04T07:25:15.705Z,16.25
2019-02-04T07:27:44.340Z,16.20
2019-02-04T07:30:18.278Z,15.95
2019-02-04T07:32:46.826Z,17.27
2019-02-04T07:35:17.680Z,16.25
2019-02-04T07:37:46.604Z,16.32
2019-02-04T07:40:18.021Z,18.00
2019-02-04T07:42:46.639Z,16.30
2019-02-04T07:45:15.243Z,17.25
2019-02-04T07:47:44.007Z,17.45
2019-02-04T07:50:13.875Z,17.62
2019-02-04T07:52:42.356Z,16.77
2019-02-04T07:55:11.723Z,17.05
2019-02-04T07:57:40.394Z,16.23
2019-02-04T08:00:24.045Z,17.00
2019-02-04T08:02:52.553Z,16.87
2019-02-04T08:05:21.243Z,16.90
2019-02-04T08:07:49.803Z,14.58
2019-02-04T08:10:18.667Z,18.52
2019-02-04T08:12:47.161Z,14.87
2019-02-04T08:15:20.794Z,16.10
2019-02-04T08:17:49.313Z,17.35
2019-02-04T08:20:18.425Z,16.70
2019-02-04T08:22:46.977Z,16.67
2019-02-04T08:25:16.816Z,15.90
2019-02-04T08:27:45.388Z,17.92
2019-02-04T08:30:37.755Z,16.85
2019-02-04T08:33:05.736Z,15.93
2019-02-04T08:35:34.244Z,16.70
2019-02-04T08:38:03.094Z,17.23
2019-02-04T08:40:31.829Z,16.48
2019-02-04T08:43:00.317Z,16.35
2019-02-04T08:45:28.800Z,15.90
2019-02-04T08:47:57.321Z,15.60
2019-02-04T08:50:27.440Z,15.25
2019-02-04T08:52:56.019Z,15.00
2019-02-04T08:55:24.551Z,15.95
2019-02-04T08:57:53.620Z,16.25
2019-02-04T09:00:25.024Z,15.50
2019-02-04T09:02:53.533Z,15.58
2019-02-04T09:05:24.215Z,16.48
2019-02-04T09:07:53.661Z,15.00
2019-02-04T09:10:27.981Z,15.10
2019-02-04T09:12:56.894Z,13.75
2019-02-04T09:15:25.525Z,14.93
2019-02-04T09:17:54.188Z,14.90
2019-02-04T09:20:22.751Z,14.53
2019-02-04T09:22:51.298Z,13.80
2019-02-04T09:25:22.821Z,15.00
2019-02-04T09:27:51.657Z,14.25
2019-02-04T09:30:22.641Z,15.32
2019-02-04T09:32:51.400Z,13.95
2019-02-04T09:35:21.586Z,13.80
2019-02-04T09:37:50.132Z,11.78
2019-02-04T09:40:24.449Z,13.90
2019-02-04T09:42:52.855Z,11.10
2019-02-04T09:45:24.340Z,13.20
2019-02-04T09:47:51.964Z,12.75
2019-02-04T09:50:23.293Z,11.93
2019-02-04T09:52:51.958Z,11.93
2019-02-04T09:55:23.652Z,12.73
2019-02-04T09:57:52.450Z,13.60
2019-02-04T10:00:23.505Z,13.90
2019-02-04T10:02:52.002Z,11.93
2019-02-04T10:05:20.785Z,11.48
2019-02-04T10:07:49.688Z,10.40
2019-02-04T10:10:21.536Z,12.65
2019-02-04T10:12:52.610Z,11.65
2019-02-04T10:15:24.412Z,10.65
2019-02-04T10:17:52.935Z,11.50
2019-02-04T10:20:33.077Z,10.18
2019-02-04T10:22:51.823Z,9.68
2019-02-04T10:25:31.340Z,11.28
2019-02-04T10:27:59.918Z,10.93
2019-02-04T10:30:28.516Z,9.83
2019-02-04T10:32:56.979Z,10.60
2019-02-04T10:35:25.649Z,10.60
2019-02-04T10:37:54.180Z,11.43
2019-02-04T10:40:28.096Z,11.15
2019-02-04T10:42:56.687Z,11.68
2019-02-04T10:45:25.623Z,10.38
2019-02-04T10:47:54.316Z,11.43
2019-02-04T10:50:28.613Z,8.53
2019-02-04T10:52:57.119Z,11.68
2019-02-04T10:55:26.063Z,10.78
2019-02-04T10:57:54.721Z,10.30
2019-02-04T11:00:29.004Z,11.25
2019-02-04T11:02:57.492Z,11.93
2019-02-04T11:05:31.181Z,10.65
2019-02-04T11:07:59.738Z,11.80
2019-02-04T11:10:31.348Z,12.60
2019-02-04T11:13:00.263Z,9.93
2019-02-04T11:15:28.915Z,11.60
2019-02-04T11:17:57.897Z,11.68
2019-02-04T11:20:28.684Z,12.45
2019-02-04T11:22:57.547Z,11.78
2019-02-04T11:25:26.253Z,13.68
2019-02-04T11:27:54.821Z,13.53
2019-02-04T11:30:26.417Z,14.18
2019-02-04T11:32:55.573Z,14.13
2019-02-04T11:35:24.186Z,13.32
2019-02-04T11:37:52.905Z,14.00
2019-02-04T11:40:27.720Z,12.33
2019-02-04T11:42:56.303Z,13.68
2019-02-04T11:45:25.236Z,12.10
2019-02-04T11:47:53.916Z,12.75
2019-02-04T11:50:22.450Z,12.82
2019-02-04T11:52:50.930Z,13.80
2019-02-04T11:55:19.489Z,14.33
2019-02-04T11:57:48.039Z,12.93
2019-02-04T12:00:22.389Z,14.60
2019-02-04T12:02:51.629Z,14.50
2019-02-04T12:05:21.682Z,14.25
2019-02-04T12:07:50.394Z,13.25
2019-02-04T12:10:21.957Z,14.50
2019-02-04T12:12:50.764Z,12.80
2019-02-04T12:15:21.818Z,16.55
2019-02-04T12:17:50.662Z,12.35
2019-02-04T12:20:19.990Z,13.85
2019-02-04T12:22:49.029Z,13.72
2019-02-04T12:25:28.405Z,12.88
2019-02-04T12:27:57.582Z,13.50
2019-02-04T12:30:40.478Z,13.88
2019-02-04T12:33:11.059Z,13.88
2019-02-04T12:35:39.468Z,14.07
2019-02-04T12:38:07.911Z,14.05
2019-02-04T12:40:36.753Z,12.63
2019-02-04T12:43:05.934Z,11.68
2019-02-04T12:45:39.302Z,12.80
2019-02-04T12:48:08.298Z,11.97
2019-02-04T12:50:36.784Z,14.50
2019-02-04T12:53:05.954Z,12.45
2019-02-04T12:55:34.634Z,11.63
2019-02-04T12:58:03.159Z,14.23
2019-02-04T13:00:33.002Z,14.10
2019-02-04T13:03:01.524Z,14.53
2019-02-04T13:05:35.686Z,12.60
2019-02-04T13:08:06.157Z,12.43
2019-02-04T13:10:34.557Z,12.90
2019-02-04T13:13:03.536Z,12.85
2019-02-04T13:15:32.066Z,13.38
2019-02-04T13:18:00.541Z,12.73
2019-02-04T13:20:29.356Z,13.48
2019-02-04T13:22:58.216Z,13.70
2019-02-04T13:25:28.621Z,10.63
2019-02-04T13:27:57.337Z,10.50
2019-02-04T13:30:30.110Z,12.20
2019-02-04T13:32:58.683Z,13.20
2019-02-04T13:35:30.969Z,13.55
2019-02-04T13:37:58.308Z,11.85
2019-02-04T13:40:28.684Z,14.85
2019-02-04T13:42:57.333Z,14.28
2019-02-04T13:45:26.208Z,13.15
2019-02-04T13:47:55.317Z,14.87
2019-02-04T13:50:24.466Z,14.13
2019-02-04T13:52:53.213Z,12.73
2019-02-04T13:55:35.037Z,14.90
2019-02-04T13:58:03.916Z,14.75
2019-02-04T14:00:32.565Z,14.73
2019-02-04T14:03:01.457Z,14.80
2019-02-04T14:05:31.790Z,13.65
2019-02-04T14:08:02.113Z,10.15
2019-02-04T14:10:33.388Z,13.08
2019-02-04T14:13:02.212Z,12.82
2019-02-04T14:15:31.114Z,11.50
2019-02-04T14:18:00.730Z,12.03
2019-02-04T14:20:29.155Z,11.12
2019-02-04T14:22:57.647Z,12.70
2019-02-04T14:25:26.216Z,12.15
2019-02-04T14:27:54.685Z,11.30
2019-02-04T14:30:28.570Z,13.45
2019-02-04T14:32:57.152Z,14.10
2019-02-04T14:35:25.873Z,13.85
2019-02-04T14:37:54.425Z,14.63
2019-02-04T14:40:24.097Z,14.10
2019-02-04T14:42:55.680Z,11.40
2019-02-04T14:45:30.262Z,13.35
2019-02-04T14:48:10.699Z,14.23
2019-02-04T14:50:42.198Z,15.00
2019-02-04T14:53:25.929Z,13.78
2019-02-04T14:56:00.176Z,13.10
2019-02-04T14:58:40.183Z,14.20
2019-02-04T15:01:30.742Z,14.35
2019-02-04T15:04:28.835Z,17.55
2019-02-04T15:07:22.901Z,16.25
2019-02-04T15:10:21.743Z,17.50
2019-02-04T15:12:55.918Z,16.15
2019-02-04T15:15:42.401Z,17.07
2019-02-04T15:18:19.425Z,17.10
2019-02-04T15:20:57.285Z,17.00
2019-02-04T15:23:40.786Z,17.23
2019-02-04T15:26:24.101Z,16.90
2019-02-04T15:28:58.548Z,16.75
2019-02-04T15:31:46.324Z,17.70
2019-02-04T15:34:29.477Z,15.00
2019-02-04T15:37:09.881Z,18.32
2019-02-04T15:39:50.378Z,15.15
2019-02-04T15:42:31.876Z,14.63
2019-02-04T15:44:57.772Z,16.67
2019-02-04T15:47:37.643Z,14.53
2019-02-04T15:50:09.184Z,17.42
2019-02-04T15:52:45.153Z,15.23
2019-02-04T15:55:13.818Z,18.75
2019-02-04T15:57:42.294Z,16.12
2019-02-04T16:00:13.333Z,14.93
2019-02-04T16:02:41.838Z,15.85
2019-02-04T16:05:11.049Z,17.82
2019-02-04T16:07:39.930Z,18.70
2019-02-04T16:10:11.550Z,15.90
2019-02-04T16:12:40.179Z,16.85
2019-02-04T16:15:11.067Z,16.50
2019-02-04T16:17:39.577Z,16.70
2019-02-04T16:20:17.065Z,17.05
2019-02-04T16:22:57.414Z,17.32
2019-02-04T16:25:15.802Z,17.40
2019-02-04T16:27:44.566Z,17.45
2019-02-04T16:30:18.279Z,17.10
2019-02-04T16:32:46.781Z,18.82
2019-02-04T16:35:17.686Z,16.35
2019-02-04T16:37:47.212Z,17.62
2019-02-04T16:40:18.031Z,19.00
2019-02-04T16:42:46.886Z,16.00
2019-02-04T16:45:17.796Z,16.87
2019-02-04T16:47:46.424Z,17.42
2019-02-04T16:50:21.108Z,17.35
2019-02-04T16:52:49.848Z,17.52
2019-02-04T16:55:18.322Z,17.98
2019-02-04T16:57:47.149Z,19.23
2019-02-04T17:00:21.568Z,18.92
2019-02-04T17:02:50.856Z,19.37
2019-02-04T17:05:20.309Z,21.23
2019-02-04T17:07:48.795Z,20.77
2019-02-04T17:10:19.475Z,19.15
2019-02-04T17:12:48.018Z,18.87
2019-02-04T17:15:16.594Z,22.70
2019-02-04T17:17:45.621Z,19.52
2019-02-04T17:20:17.585Z,19.87
2019-02-04T17:22:46.079Z,22.30
2019-02-04T17:25:14.599Z,21.50
2019-02-04T17:27:43.614Z,19.85
2019-02-04T17:30:18.409Z,22.52
2019-02-04T17:32:47.003Z,21.80
2019-02-04T17:35:15.871Z,22.90
2019-02-04T17:37:44.481Z,20.88
2019-02-04T17:40:15.833Z,23.90
2019-02-04T17:42:44.586Z,20.37
2019-02-04T17:45:15.488Z,22.87
2019-02-04T17:47:44.529Z,22.98
2019-02-04T17:50:18.992Z,23.52
2019-02-04T17:52:47.850Z,24.30
2019-02-04T17:55:18.761Z,25.65
2019-02-04T17:57:47.261Z,24.15
2019-02-04T18:00:19.476Z,23.25
2019-02-04T18:02:48.075Z,22.93
2019-02-04T18:05:16.671Z,26.05
2019-02-04T18:07:45.093Z,26.70
2019-02-04T18:10:16.528Z,24.23
2019-02-04T18:12:45.548Z,28.05
2019-02-04T18:15:19.592Z,24.10
2019-02-04T18:17:48.198Z,23.73
2019-02-04T18:20:17.001Z,21.82
2019-02-04T18:22:45.577Z,23.38
2019-02-04T18:25:21.737Z,26.97
2019-02-04T18:27:50.802Z,24.85
2019-02-04T18:30:22.157Z,23.83
2019-02-04T18:32:51.154Z,28.02
2019-02-04T18:35:20.592Z,24.43
2019-02-04T18:37:49.372Z,24.98
2019-02-04T18:40:21.337Z,25.23
2019-02-04T18:42:50.553Z,25.15
2019-02-04T18:45:27.373Z,24.87
2019-02-04T18:47:56.928Z,24.02
2019-02-04T18:50:27.346Z,24.07
2019-02-04T18:52:56.148Z,28.40
2019-02-04T18:55:35.668Z,25.48
2019-02-04T18:58:05.142Z,26.90
2019-02-04T19:00:35.701Z,26.75
2019-02-04T19:03:16.509Z,24.30
2019-02-04T19:05:35.851Z,25.45
2019-02-04T19:08:07.099Z,25.10
2019-02-04T19:10:35.943Z,28.27
2019-02-04T19:13:04.932Z,31.33
2019-02-04T19:15:34.018Z,26.82
2019-02-04T19:18:06.113Z,39.45
2019-02-04T19:20:34.992Z,24.23
2019-02-04T19:23:03.747Z,24.00
2019-02-04T19:25:32.637Z,23.92
2019-02-04T19:28:01.329Z,24.37
2019-02-04T19:30:36.371Z,25.08
2019-02-04T19:33:06.130Z,28.12
2019-02-04T19:35:35.597Z,28.55
2019-02-04T19:38:04.906Z,25.60
2019-02-04T19:40:33.909Z,23.65
2019-02-04T19:43:03.219Z,24.32
2019-02-04T19:45:32.560Z,24.63
2019-02-04T19:48:03.190Z,23.42
2019-02-04T19:50:34.223Z,22.73
2019-02-04T19:53:04.448Z,23.52
2019-02-04T19:55:34.095Z,23.25
2019-02-04T19:58:03.230Z,23.00
2019-02-04T20:00:32.907Z,21.55
2019-02-04T20:03:02.282Z,24.10
2019-02-04T20:05:32.666Z,23.80
2019-02-04T20:08:01.769Z,22.60
2019-02-04T20:10:33.009Z,24.37
2019-02-04T20:13:02.972Z,25.85
2019-02-04T20:15:33.075Z,28.10
2019-02-04T20:18:03.470Z,26.60
2019-02-04T20:20:34.042Z,26.77
2019-02-04T20:23:02.897Z,22.95
2019-02-04T20:25:35.995Z,26.80
2019-02-04T20:28:07.529Z,26.55
2019-02-04T20:30:46.079Z,26.20
2019-02-04T20:33:14.662Z,24.23
2019-02-04T20:35:44.254Z,28.92
2019-02-04T20:38:13.134Z,26.48
2019-02-04T20:40:42.546Z,24.47
2019-02-04T20:43:12.783Z,25.90
2019-02-04T20:45:41.798Z,28.62
2019-02-04T20:48:15.874Z,27.05
2019-02-04T20:50:47.552Z,24.70
2019-02-04T20:53:16.954Z,25.75
2019-02-04T20:55:45.719Z,25.05
2019-02-04T20:58:15.067Z,25.08
2019-02-04T21:00:44.118Z,25.65
2019-02-04T21:03:13.125Z,30.65
2019-02-04T21:05:41.913Z,31.45
2019-02-04T21:08:10.912Z,30.60
2019-02-04T21:10:39.873Z,28.20
2019-02-04T21:13:08.466Z,28.77
2019-02-04T21:15:37.087Z,25.82
2019-02-04T21:18:06.091Z,25.45
2019-02-04T21:20:34.979Z,26.05
2019-02-04T21:23:03.698Z,22.58
2019-02-04T21:25:32.669Z,25.75
2019-02-04T21:28:01.346Z,25.50
2019-02-04T21:30:32.674Z,24.67
2019-02-04T21:33:01.493Z,22.15
2019-02-04T21:35:30.278Z,20.60
2019-02-04T21:37:58.949Z,24.32
2019-02-04T21:40:27.920Z,22.40
2019-02-04T21:42:56.382Z,24.65
2019-02-04T21:45:25.906Z,24.70
2019-02-04T21:47:54.427Z,25.92
2019-02-04T21:50:25.095Z,23.67
2019-02-04T21:52:53.682Z,23.42
2019-02-04T21:55:23.938Z,23.62
2019-02-04T21:57:52.987Z,23.87
2019-02-04T22:00:26.756Z,24.20
2019-02-04T22:02:55.326Z,24.67
2019-02-04T22:05:26.106Z,23.10
2019-02-04T22:07:54.625Z,25.32
2019-02-04T22:10:25.434Z,21.77
2019-02-04T22:12:54.067Z,25.30
2019-02-04T22:15:22.697Z,23.77
2019-02-04T22:17:51.139Z,26.10
2019-02-04T22:20:20.817Z,23.75
2019-02-04T22:22:49.439Z,23.07
2019-02-04T22:25:20.368Z,22.80
2019-02-04T22:27:48.946Z,22.20
2019-02-04T22:30:30.413Z,22.70
2019-02-04T22:32:59.364Z,25.52
2019-02-04T22:35:27.961Z,21.23
2019-02-04T22:37:57.032Z,24.27
2019-02-04T22:40:30.022Z,25.97
2019-02-04T22:42:58.542Z,27.37
2019-02-04T22:45:27.182Z,31.68
2019-02-04T22:47:56.089Z,29.90
2019-02-04T22:50:27.022Z,34.73
2019-02-04T22:52:55.477Z,30.88
2019-02-04T22:55:31.578Z,30.27
2019-02-04T22:57:54.585Z,23.95
2019-02-04T23:00:27.765Z,20.15
2019-02-04T23:02:56.294Z,18.85
2019-02-04T23:05:24.742Z,22.65
2019-02-04T23:07:53.718Z,18.92
2019-02-04T23:10:22.274Z,20.12
2019-02-04T23:12:50.779Z,20.35
2019-02-04T23:15:19.563Z,21.23
2019-02-04T23:17:48.539Z,17.70
2019-02-04T23:20:17.279Z,22.62
2019-02-04T23:22:46.131Z,20.70
2019-02-04T23:25:14.766Z,19.62
2019-02-04T23:27:43.465Z,18.23
2019-02-04T23:30:17.445Z,18.05
2019-02-04T23:32:45.901Z,21.60
2019-02-04T23:35:14.558Z,19.82
2019-02-04T23:37:43.678Z,22.25
2019-02-04T23:40:14.723Z,20.32
2019-02-04T23:42:43.574Z,21.20
2019-02-04T23:45:12.467Z,21.48
2019-02-04T23:47:40.933Z,20.60
2019-02-04T23:50:14.446Z,19.73
2019-02-04T23:52:42.939Z,20.90
2019-02-04T23:55:12.584Z,19.05
2019-02-04T23:57:41.179Z,20.55
